Time;durP1;ratioP1;P1;durP2;ratioP2;P2;SDS_P1;SDS_P2;PMS_P1;PMS_P2;Temp;Humidity;BMP_temperature;BMP_pressure;BME280_temperature;BME280_humidity;BME280_pressure;Samples;Min_cycle;Max_cycle;Signal;HPM_P1;HPM_P2
2022/06/05 00:01:49;;;;;;;0.68;0.43;;;14.70;99.90;;;;;;5030991;28;20119;-76
2022/06/05 00:04:43;;;;;;;2.33;1.20;;;14.70;99.90;;;;;;5043247;28;20052;-76
2022/06/05 00:07:28;;;;;;;1.85;0.25;;;14.70;99.90;;;;;;5049033;28;20032;-74
2022/06/05 00:10:18;;;;;;;0.35;0.32;;;14.90;99.90;;;;;;5033394;28;20049;-78
2022/06/05 00:12:58;;;;;;;0.70;0.20;;;15.00;99.90;;;;;;5033530;28;20032;-75
2022/06/05 00:15:27;;;;;;;0.28;0.20;;;15.00;99.90;;;;;;5030909;28;20033;-76
2022/06/05 00:17:55;;;;;;;1.38;0.35;;;15.10;99.90;;;;;;5049616;28;20516;-75
2022/06/05 00:20:22;;;;;;;0.70;0.30;;;15.20;99.90;;;;;;5048813;28;20159;-78
2022/06/05 00:22:50;;;;;;;0.38;0.20;;;15.30;99.90;;;;;;5041627;28;20079;-75
2022/06/05 00:25:17;;;;;;;1.95;0.20;;;15.30;99.90;;;;;;5040971;28;20132;-77
2022/06/05 00:28:18;;;;;;;1.02;0.22;;;15.40;99.90;;;;;;5048118;28;20063;-77
2022/06/05 00:31:09;;;;;;;1.20;0.40;;;15.50;99.90;;;;;;5032678;28;20095;-78
2022/06/05 00:33:38;;;;;;;0.75;0.20;;;15.60;99.90;;;;;;5032060;28;20048;-77
2022/06/05 00:36:15;;;;;;;0.22;0.22;;;15.50;99.90;;;;;;5047402;28;20063;-74
2022/06/05 00:38:51;;;;;;;0.22;0.22;;;15.60;99.90;;;;;;5044013;28;20111;-77
2022/06/05 00:41:40;;;;;;;1.48;0.30;;;15.80;99.50;;;;;;5039207;28;20060;-77
2022/06/05 00:44:10;;;;;;;0.25;0.20;;;15.80;99.80;;;;;;5033477;28;20040;-76
2022/06/05 00:46:39;;;;;;;0.30;0.10;;;15.90;99.70;;;;;;5034449;28;20025;-76
2022/06/05 00:49:07;;;;;;;0.82;0.63;;;16.00;99.30;;;;;;5036509;28;20481;-75
2022/06/05 00:51:35;;;;;;;1.48;0.40;;;16.00;99.90;;;;;;5028524;28;20032;-76
2022/06/05 00:54:02;;;;;;;0.65;0.38;;;17.00;99.90;;;;;;5034182;28;20510;-77
2022/06/05 00:56:31;;;;;;;0.85;0.20;;;18.50;97.60;;;;;;5030165;28;20036;-74
2022/06/05 00:58:58;;;;;;;1.65;0.32;;;18.90;96.70;;;;;;5033771;28;20033;-74
2022/06/05 01:01:29;;;;;;;0.55;0.20;;;19.60;95.00;;;;;;5045100;28;20343;-72
2022/06/05 01:04:01;;;;;;;1.55;0.15;;;20.40;93.90;;;;;;5028588;28;20033;-74
2022/06/05 01:06:31;;;;;;;0.15;0.10;;;19.70;94.00;;;;;;5030235;28;20035;-78
2022/06/05 01:08:59;;;;;;;0.52;0.30;;;20.00;94.40;;;;;;5047665;28;20514;-76
2022/06/05 01:12:17;;;;;;;0.57;0.22;;;20.10;94.60;;;;;;5042453;28;20431;-75
2022/06/05 01:14:44;;;;;;;1.95;0.43;;;20.10;94.40;;;;;;5030180;28;20033;-77
2022/06/05 01:17:31;;;;;;;0.95;0.32;;;21.60;93.20;;;;;;5039392;28;20052;-75
2022/06/05 01:20:01;;;;;;;2.05;0.55;;;22.90;91.80;;;;;;5048265;28;20106;-75
2022/06/05 01:22:46;;;;;;;0.10;0.10;;;24.30;90.20;;;;;;5048227;28;20043;-75
2022/06/05 01:25:24;;;;;;;0.15;0.15;;;24.60;85.20;;;;;;5051917;28;20170;-76
2022/06/05 01:27:58;;;;;;;0.63;0.30;;;24.60;86.20;;;;;;5038473;28;20114;-75
2022/06/05 01:30:26;;;;;;;0.60;0.30;;;24.60;83.00;;;;;;5049430;28;20430;-77
2022/06/05 01:33:06;;;;;;;1.10;0.38;;;23.80;81.90;;;;;;5053404;28;20037;-74
2022/06/05 01:36:02;;;;;;;0.38;0.20;;;23.30;81.30;;;;;;5051375;28;20029;-73
2022/06/05 01:38:57;;;;;;;0.68;0.25;;;23.60;82.80;;;;;;5050303;28;20034;-74
2022/06/05 01:41:52;;;;;;;0.10;0.10;;;24.00;79.70;;;;;;5038283;28;20040;-74
2022/06/05 01:44:32;;;;;;;0.05;0.05;;;24.20;79.20;;;;;;5042890;28;20051;-77
2022/06/05 01:47:04;;;;;;;1.40;0.10;;;24.10;79.30;;;;;;5040708;28;20821;-76
2022/06/05 01:49:43;;;;;;;0.30;0.30;;;23.90;80.30;;;;;;5043097;28;20049;-76
2022/06/05 01:52:25;;;;;;;1.08;0.22;;;23.70;79.60;;;;;;5053216;28;20036;-74
2022/06/05 01:55:00;;;;;;;0.30;0.20;;;23.90;79.80;;;;;;5032827;28;20033;-77
2022/06/05 01:57:30;;;;;;;0.73;0.20;;;23.30;78.20;;;;;;5033150;28;20102;-75
2022/06/05 02:00:04;;;;;;;0.63;0.25;;;23.30;79.70;;;;;;5032501;28;20041;-76
2022/06/05 02:02:42;;;;;;;0.40;0.30;;;23.50;79.00;;;;;;5037854;28;20090;-75
2022/06/05 02:05:15;;;;;;;0.90;0.10;;;23.20;78.70;;;;;;5031594;28;20371;-74
2022/06/05 02:07:58;;;;;;;0.30;0.30;;;23.10;79.10;;;;;;5036455;28;20396;-76
2022/06/05 02:10:29;;;;;;;0.75;0.20;;;22.70;78.60;;;;;;5050422;28;20554;-74
2022/06/05 02:12:58;;;;;;;0.55;0.20;;;22.40;78.90;;;;;;5042248;28;20025;-76
2022/06/05 02:15:28;;;;;;;0.30;0.10;;;21.60;80.10;;;;;;5033414;28;20090;-76
2022/06/05 02:17:57;;;;;;;0.55;0.20;;;20.60;81.60;;;;;;5036998;28;20060;-76
2022/06/05 02:20:25;;;;;;;0.38;0.20;;;20.40;82.30;;;;;;5036386;28;20029;-72
2022/06/05 02:22:53;;;;;;;0.50;0.40;;;20.40;82.70;;;;;;5035519;28;20044;-73
2022/06/05 02:25:25;;;;;;;0.63;0.30;;;20.80;81.50;;;;;;5034477;28;20029;-72
2022/06/05 02:28:02;;;;;;;0.10;0.10;;;21.40;81.50;;;;;;5041536;28;20025;-77
2022/06/05 02:30:43;;;;;;;0.95;0.30;;;21.80;79.20;;;;;;5046141;28;20033;-74
2022/06/05 02:33:55;;;;;;;0.10;0.10;;;21.50;80.00;;;;;;5034693;28;20033;-77
2022/06/05 02:36:59;;;;;;;0.10;0.10;;;20.90;80.70;;;;;;5017114;28;20098;-75
2022/06/05 02:39:36;;;;;;;0.73;0.20;;;20.60;82.60;;;;;;5046822;28;20436;-72
2022/06/05 02:42:24;;;;;;;0.10;0.10;;;20.90;81.90;;;;;;5034546;28;20029;-76
2022/06/05 02:44:58;;;;;;;0.32;0.13;;;21.00;83.50;;;;;;5042581;28;20020;-75
2022/06/05 02:47:49;;;;;;;1.17;0.20;;;21.30;81.80;;;;;;5042205;28;21912;-76
2022/06/05 02:50:43;;;;;;;0.17;0.10;;;21.20;82.20;;;;;;5038440;28;20488;-77
2022/06/05 02:53:13;;;;;;;0.85;0.20;;;20.80;81.20;;;;;;5043731;28;20029;-76
2022/06/05 02:55:44;;;;;;;0.38;0.10;;;20.70;82.70;;;;;;5033016;28;20029;-75
2022/06/05 02:58:13;;;;;;;0.30;0.10;;;20.90;82.00;;;;;;5037353;28;20033;-75
2022/06/05 03:03:27;;;;;;;0.40;0.10;;;21.10;81.20;;;;;;5048379;28;20090;-73
2022/06/05 03:03:28;;;;;;;0.88;0.52;;;20.70;81.40;;;;;;5044708;28;20045;-72
2022/06/05 03:05:59;;;;;;;0.85;0.17;;;20.60;81.60;;;;;;5050907;28;20021;-70
2022/06/05 03:08:26;;;;;;;0.25;0.10;;;20.30;82.00;;;;;;5049731;28;20928;-73
2022/06/05 03:10:53;;;;;;;0.10;0.10;;;20.20;82.20;;;;;;5050693;28;20028;-75
2022/06/05 03:13:22;;;;;;;0.10;0.10;;;20.20;82.80;;;;;;5037106;28;20048;-75
2022/06/05 03:15:50;;;;;;;0.30;0.10;;;20.30;83.30;;;;;;5035239;28;20036;-77
2022/06/05 03:18:17;;;;;;;2.65;0.30;;;20.30;83.50;;;;;;5034173;28;20514;-73
2022/06/05 03:20:45;;;;;;;0.20;0.00;;;20.00;82.70;;;;;;5039081;28;20106;-78
2022/06/05 03:23:12;;;;;;;1.20;0.10;;;19.50;84.40;;;;;;5026838;28;20025;-72
2022/06/05 03:25:42;;;;;;;0.90;0.10;;;19.20;83.60;;;;;;5030858;28;20108;-76
2022/06/05 03:28:10;;;;;;;0.70;0.10;;;19.00;84.30;;;;;;5067444;28;20036;-71
2022/06/05 03:30:40;;;;;;;1.38;0.10;;;18.80;84.50;;;;;;5050896;28;20036;-73
2022/06/05 03:33:09;;;;;;;0.85;0.10;;;18.70;84.90;;;;;;5046165;28;20028;-76
2022/06/05 03:35:42;;;;;;;1.58;0.10;;;18.60;85.40;;;;;;5038513;28;20407;-74
2022/06/05 03:38:10;;;;;;;0.20;0.13;;;18.50;85.40;;;;;;5037247;28;20116;-74
2022/06/05 03:40:44;;;;;;;1.90;0.22;;;18.60;85.80;;;;;;5048042;28;20028;-74
2022/06/05 03:43:13;;;;;;;0.35;0.32;;;18.70;85.40;;;;;;5042122;28;20036;-74
2022/06/05 03:45:40;;;;;;;0.22;0.20;;;18.80;85.80;;;;;;5035476;28;20041;-75
2022/06/05 03:48:08;;;;;;;0.10;0.10;;;18.90;85.80;;;;;;5037878;28;20116;-75
2022/06/05 03:50:39;;;;;;;0.00;0.00;;;18.80;85.10;;;;;;5047627;28;20043;-76
2022/06/05 03:53:07;;;;;;;0.35;0.10;;;18.80;85.90;;;;;;5046310;28;20051;-72
2022/06/05 03:55:34;;;;;;;0.73;0.28;;;18.90;86.10;;;;;;5049177;28;20503;-76
2022/06/05 03:58:02;;;;;;;0.35;0.10;;;18.80;84.70;;;;;;5051625;28;20044;-71
2022/06/05 04:00:30;;;;;;;0.20;0.20;;;18.70;85.80;;;;;;5031175;28;20017;-74
2022/06/05 04:02:57;;;;;;;0.63;0.20;;;18.60;86.10;;;;;;5031137;28;20029;-72
2022/06/05 04:05:25;;;;;;;1.15;0.22;;;18.60;86.70;;;;;;5037254;28;20029;-74
2022/06/05 04:07:52;;;;;;;0.50;0.10;;;18.50;87.10;;;;;;5051359;28;20507;-73
2022/06/05 04:10:20;;;;;;;0.80;0.10;;;18.40;85.40;;;;;;5034605;28;20037;-77
2022/06/05 04:12:49;;;;;;;0.10;0.10;;;18.30;86.50;;;;;;5041227;28;20171;-76
2022/06/05 04:15:17;;;;;;;0.20;0.10;;;18.30;86.30;;;;;;5067567;28;20567;-73
2022/06/05 04:17:44;;;;;;;0.35;0.10;;;18.30;86.50;;;;;;5031967;28;20096;-76
2022/06/05 04:20:12;;;;;;;0.30;0.10;;;18.30;85.80;;;;;;5037624;28;20014;-75
2022/06/05 04:22:41;;;;;;;0.22;0.10;;;18.30;86.00;;;;;;5037234;28;20380;-76
2022/06/05 04:25:11;;;;;;;1.20;0.30;;;18.20;86.30;;;;;;5049150;28;20163;-75
2022/06/05 04:27:39;;;;;;;0.65;0.10;;;18.20;87.00;;;;;;5049380;28;20525;-72
2022/06/05 04:30:06;;;;;;;0.95;0.20;;;18.20;87.00;;;;;;5044839;28;20032;-74
2022/06/05 04:32:34;;;;;;;0.20;0.10;;;18.10;86.70;;;;;;5030743;28;20041;-75
2022/06/05 04:35:01;;;;;;;0.45;0.20;;;18.10;87.20;;;;;;5044656;28;20040;-73
2022/06/05 04:37:28;;;;;;;1.75;0.35;;;18.00;87.50;;;;;;5036921;28;20431;-72
2022/06/05 04:39:56;;;;;;;0.10;0.10;;;17.90;87.10;;;;;;5044400;28;20021;-75
2022/06/05 04:42:23;;;;;;;0.32;0.13;;;17.90;87.60;;;;;;5048901;28;20039;-73
2022/06/05 04:44:50;;;;;;;0.70;0.30;;;17.80;86.80;;;;;;5046462;28;20032;-74
2022/06/05 04:47:18;;;;;;;0.20;0.10;;;17.70;87.80;;;;;;5045156;28;20065;-73
2022/06/05 04:49:45;;;;;;;0.98;0.20;;;17.60;87.50;;;;;;5043883;28;20061;-76
2022/06/05 04:52:12;;;;;;;0.10;0.10;;;17.50;87.10;;;;;;5037849;28;20036;-75
2022/06/05 04:54:40;;;;;;;0.68;0.17;;;17.40;87.60;;;;;;5031542;28;20384;-72
2022/06/05 04:57:07;;;;;;;1.85;0.35;;;17.30;88.20;;;;;;5032443;28;20102;-74
2022/06/05 04:59:35;;;;;;;0.28;0.17;;;17.30;87.50;;;;;;5046694;28;20071;-76
2022/06/05 05:02:02;;;;;;;1.40;0.10;;;17.30;87.10;;;;;;5049954;28;20037;-75
2022/06/05 05:04:29;;;;;;;0.20;0.10;;;17.20;88.20;;;;;;5045114;28;20025;-75
2022/06/05 05:06:57;;;;;;;0.10;0.10;;;17.10;87.80;;;;;;5053754;28;20072;-75
2022/06/05 05:09:24;;;;;;;0.28;0.10;;;17.10;87.90;;;;;;5051977;28;20048;-76
2022/06/05 05:11:51;;;;;;;1.17;0.20;;;17.10;88.20;;;;;;5051811;28;20494;-78
2022/06/05 05:14:19;;;;;;;0.88;0.17;;;17.10;88.40;;;;;;5049903;28;20059;-74
2022/06/05 05:16:46;;;;;;;0.50;0.15;;;17.10;88.50;;;;;;5037770;28;20076;-74
2022/06/05 05:19:13;;;;;;;0.30;0.10;;;17.00;88.60;;;;;;5043618;28;20025;-76
2022/06/05 05:21:41;;;;;;;0.80;0.30;;;17.00;88.70;;;;;;5033735;28;20033;-76
2022/06/05 05:24:08;;;;;;;0.60;0.10;;;17.00;88.80;;;;;;5031745;28;20059;-76
2022/06/05 05:26:36;;;;;;;0.35;0.10;;;17.00;88.80;;;;;;5044655;28;20872;-76
2022/06/05 05:29:05;;;;;;;0.10;0.10;;;17.00;89.20;;;;;;5037611;28;20168;-79
2022/06/05 05:31:36;;;;;;;0.10;0.10;;;17.00;88.90;;;;;;5041025;28;20039;-77
2022/06/05 05:34:05;;;;;;;0.10;0.10;;;16.90;89.00;;;;;;5040183;28;20036;-74
2022/06/05 05:36:33;;;;;;;0.55;0.13;;;16.90;89.00;;;;;;5035281;28;20215;-70
2022/06/05 05:42:05;;;;;;;1.47;0.30;;;16.80;90.00;;;;;;5034816;28;20121;-76
2022/06/05 05:44:37;;;;;;;;;;;16.80;90.00;;;;;;5041648;28;20025;-76
2022/06/05 05:47:07;;;;;;;0.43;0.20;;;16.80;90.20;;;;;;5048566;28;19970;-75
2022/06/05 05:49:35;;;;;;;0.40;0.20;;;16.70;90.10;;;;;;5046665;28;20041;-73
2022/06/05 05:52:03;;;;;;;0.52;0.30;;;16.70;90.60;;;;;;5036535;28;20400;-76
2022/06/05 05:54:31;;;;;;;1.35;0.30;;;16.60;90.40;;;;;;5031444;28;20029;-75
2022/06/05 05:56:58;;;;;;;1.55;0.50;;;16.60;90.50;;;;;;5043165;28;20080;-74
2022/06/05 05:59:26;;;;;;;1.58;0.70;;;16.60;90.60;;;;;;5031847;28;20041;-75
2022/06/05 06:01:53;;;;;;;1.63;0.60;;;16.60;90.80;;;;;;5039142;28;20332;-74
2022/06/05 06:04:21;;;;;;;1.67;0.60;;;16.60;91.00;;;;;;5034662;28;20030;-74
2022/06/05 06:06:52;;;;;;;3.45;0.95;;;16.50;91.10;;;;;;5030709;28;20060;-73
2022/06/05 06:09:20;;;;;;;1.38;0.63;;;16.50;90.90;;;;;;5032518;28;20380;-75
2022/06/05 06:11:48;;;;;;;1.67;0.82;;;16.50;90.90;;;;;;5034784;28;20056;-73
2022/06/05 06:14:15;;;;;;;0.90;0.47;;;16.50;91.00;;;;;;5039554;28;20032;-73
2022/06/05 06:16:42;;;;;;;2.13;0.60;;;16.40;91.10;;;;;;5043560;28;20036;-74
2022/06/05 06:19:10;;;;;;;0.57;0.40;;;16.40;91.20;;;;;;5038610;28;20041;-73
2022/06/05 06:21:37;;;;;;;0.80;0.50;;;16.30;91.30;;;;;;5045604;28;20083;-73
2022/06/05 06:24:05;;;;;;;2.47;0.70;;;16.20;91.40;;;;;;5043733;28;20030;-73
2022/06/05 06:26:32;;;;;;;1.10;0.52;;;16.20;91.40;;;;;;5032639;28;20014;-74
2022/06/05 06:28:59;;;;;;;0.75;0.32;;;16.10;91.50;;;;;;5037001;28;20033;-73
2022/06/05 06:31:27;;;;;;;0.80;0.63;;;16.00;91.50;;;;;;5051035;28;20471;-73
2022/06/05 06:33:54;;;;;;;1.05;0.35;;;16.00;91.70;;;;;;5048436;28;20029;-73
2022/06/05 06:36:22;;;;;;;1.08;0.80;;;15.90;91.70;;;;;;5052186;28;20033;-74
2022/06/05 06:38:49;;;;;;;0.90;0.50;;;15.80;91.80;;;;;;5049957;28;20082;-73
2022/06/05 06:41:19;;;;;;;1.17;0.60;;;15.70;92.00;;;;;;5052123;28;20040;-71
2022/06/05 06:43:48;;;;;;;1.10;0.57;;;15.60;92.30;;;;;;5045936;28;20696;-73
2022/06/05 06:46:17;;;;;;;2.13;0.50;;;15.50;92.50;;;;;;5035959;28;20033;-74
2022/06/05 06:48:44;;;;;;;0.60;0.50;;;15.40;92.80;;;;;;5035396;28;20052;-73
2022/06/05 06:51:13;;;;;;;1.30;0.70;;;15.30;92.90;;;;;;5045365;28;20039;-71
2022/06/05 06:53:41;;;;;;;1.70;0.90;;;15.20;93.40;;;;;;5037056;28;20111;-70
2022/06/05 06:56:15;;;;;;;1.30;0.80;;;15.10;93.50;;;;;;5051494;28;20028;-73
2022/06/05 06:58:43;;;;;;;1.13;0.80;;;15.00;93.70;;;;;;5049197;28;20040;-75
2022/06/05 07:01:12;;;;;;;4.97;0.80;;;15.00;93.90;;;;;;5045612;28;20472;-73
2022/06/05 07:03:39;;;;;;;1.83;1.05;;;14.90;94.00;;;;;;5035575;28;20039;-77
2022/06/05 07:06:10;;;;;;;3.22;1.73;;;14.80;94.20;;;;;;5039675;28;20040;-76
2022/06/05 07:08:38;;;;;;;3.15;1.25;;;14.80;94.50;;;;;;5043474;28;20044;-76
2022/06/05 07:11:10;;;;;;;2.90;1.08;;;14.70;94.50;;;;;;5044524;28;20116;-77
2022/06/05 07:13:37;;;;;;;3.13;1.00;;;14.70;94.50;;;;;;5038826;28;20033;-73
2022/06/05 07:16:10;;;;;;;2.60;2.00;;;14.60;94.90;;;;;;5037298;28;20022;-75
2022/06/05 07:18:38;;;;;;;2.80;2.05;;;14.50;95.10;;;;;;5035272;28;20119;-75
2022/06/05 07:21:21;;;;;;;3.88;1.95;;;14.40;95.30;;;;;;5037340;28;20475;-76
2022/06/05 07:23:49;;;;;;;3.72;1.70;;;14.20;95.50;;;;;;5031683;28;20030;-74
2022/06/05 07:26:21;;;;;;;2.88;1.88;;;14.10;95.80;;;;;;5039760;28;20033;-74
2022/06/05 07:28:49;;;;;;;3.40;1.73;;;14.10;95.90;;;;;;5034683;28;20028;-74
2022/06/05 07:31:18;;;;;;;4.78;3.05;;;14.00;96.20;;;;;;5041628;28;20116;-75
2022/06/05 07:33:45;;;;;;;10.80;6.13;;;14.00;96.40;;;;;;5036571;28;20029;-75
2022/06/05 07:36:16;;;;;;;14.32;8.27;;;13.90;96.70;;;;;;5045439;28;20035;-77
2022/06/05 07:38:44;;;;;;;4.50;1.60;;;13.80;96.90;;;;;;5032209;28;20159;-75
2022/06/05 07:41:22;;;;;;;3.65;1.30;;;13.80;97.00;;;;;;5030597;28;20029;-75
2022/06/05 07:43:50;;;;;;;5.25;2.28;;;13.70;97.00;;;;;;5036720;28;20129;-75
2022/06/05 07:46:18;;;;;;;4.80;2.65;;;13.70;97.20;;;;;;5038415;28;20065;-76
2022/06/05 07:48:46;;;;;;;6.45;3.88;;;13.60;97.30;;;;;;5038871;28;20119;-76
2022/06/05 07:56:48;;;;;;;12.77;7.05;;;13.40;97.80;;;;;;5042791;28;20107;-72
2022/06/05 07:59:16;;;;;;;7.00;3.08;;;13.30;97.80;;;;;;5038706;28;20041;-73
2022/06/05 08:01:43;;;;;;;12.38;7.90;;;13.30;98.00;;;;;;5040130;28;20025;-76
2022/06/05 08:04:10;;;;;;;10.73;5.95;;;13.30;98.30;;;;;;5031359;28;20036;-73
2022/06/05 08:06:38;;;;;;;11.52;6.80;;;13.20;98.30;;;;;;5035793;28;20147;-75
2022/06/05 08:09:06;;;;;;;9.10;5.22;;;13.10;98.50;;;;;;5041422;28;20400;-73
2022/06/05 08:11:34;;;;;;;5.63;2.70;;;13.00;98.60;;;;;;5043003;28;20047;-74
2022/06/05 08:14:03;;;;;;;1.60;1.27;;;13.00;98.60;;;;;;5043766;28;20033;-72
2022/06/05 08:16:30;;;;;;;2.50;1.25;;;12.90;98.70;;;;;;5038713;28;20037;-74
2022/06/05 08:18:58;;;;;;;2.42;0.82;;;12.90;98.80;;;;;;5046651;28;20099;-75
2022/06/05 08:21:26;;;;;;;1.52;1.15;;;12.90;98.80;;;;;;5047962;28;20033;-75
2022/06/05 08:23:54;;;;;;;2.63;1.17;;;12.80;98.90;;;;;;5046264;28;20031;-73
2022/06/05 08:26:21;;;;;;;2.08;0.90;;;12.80;98.90;;;;;;5045447;28;20108;-74
2022/06/05 08:28:48;;;;;;;2.08;1.77;;;12.80;99.10;;;;;;5036720;28;20579;-73
2022/06/05 08:31:16;;;;;;;4.85;3.30;;;12.70;99.00;;;;;;5048670;28;20032;-75
2022/06/05 08:33:44;;;;;;;6.10;4.10;;;12.70;99.10;;;;;;5047003;28;20128;-77
2022/06/05 08:36:12;;;;;;;5.28;3.90;;;12.70;99.10;;;;;;5046334;28;20025;-76
2022/06/05 08:41:43;;;;;;;2.85;1.42;;;12.60;99.30;;;;;;5046746;28;20557;-77
2022/06/05 08:44:39;;;;;;;3.38;3.08;;;12.50;99.20;;;;;;5042185;28;20359;-74
2022/06/05 08:47:25;;;;;;;2.88;2.35;;;12.50;99.30;;;;;;5038480;28;20037;-73
2022/06/05 08:50:18;;;;;;;1.58;1.00;;;12.40;99.50;;;;;;5043572;28;20053;-73
2022/06/05 08:52:51;;;;;;;1.88;0.95;;;12.40;99.50;;;;;;5035248;28;20128;-75
2022/06/05 08:55:41;;;;;;;1.98;0.80;;;12.40;99.30;;;;;;5046102;28;20029;-75
2022/06/05 08:58:25;;;;;;;1.63;0.93;;;12.40;99.60;;;;;;5028507;28;20484;-71
2022/06/05 09:01:05;;;;;;;0.50;0.40;;;12.30;99.60;;;;;;5036540;28;20025;-74
2022/06/05 09:03:47;;;;;;;0.98;0.52;;;12.30;99.60;;;;;;5037139;28;20128;-77
2022/06/05 09:06:26;;;;;;;2.60;1.15;;;12.30;99.70;;;;;;5032498;28;20025;-75
2022/06/05 09:08:58;;;;;;;1.08;0.50;;;12.30;99.60;;;;;;5036278;28;20072;-74
2022/06/05 09:11:37;;;;;;;2.33;0.70;;;12.30;99.80;;;;;;5035239;28;20025;-76
2022/06/05 09:14:33;;;;;;;2.47;1.00;;;12.30;99.60;;;;;;5039815;28;20033;-76
2022/06/05 09:17:15;;;;;;;0.93;0.70;;;12.30;99.70;;;;;;5041888;28;20052;-75
2022/06/05 09:19:44;;;;;;;1.00;0.80;;;12.20;99.80;;;;;;5040385;28;20091;-72
2022/06/05 09:22:16;;;;;;;0.85;0.60;;;12.20;99.80;;;;;;5043985;28;20029;-76
2022/06/05 09:24:49;;;;;;;1.42;0.82;;;12.20;99.70;;;;;;5043854;28;20120;-77
2022/06/05 09:27:32;;;;;;;2.97;1.40;;;12.20;99.90;;;;;;5031219;28;20035;-75
2022/06/05 09:30:10;;;;;;;1.40;0.95;;;12.10;99.90;;;;;;5035390;28;20051;-78
2022/06/05 09:33:14;;;;;;;2.25;0.70;;;12.10;99.90;;;;;;5030916;28;20071;-73
2022/06/05 09:36:07;;;;;;;1.10;0.70;;;12.00;99.90;;;;;;5036531;28;20032;-75
2022/06/05 09:38:40;;;;;;;1.02;0.70;;;12.00;99.90;;;;;;5033700;28;20074;-74
2022/06/05 09:41:58;;;;;;;2.47;1.35;;;11.90;99.90;;;;;;5038211;28;20850;-74
2022/06/05 09:45:01;;;;;;;1.02;0.57;;;11.90;99.90;;;;;;5063615;28;20028;-77
2022/06/05 09:47:42;;;;;;;1.60;0.85;;;11.80;99.90;;;;;;5068454;28;20047;-74
2022/06/05 09:50:25;;;;;;;2.20;1.15;;;11.80;99.90;;;;;;5042465;28;20602;-75
2022/06/05 09:52:53;;;;;;;2.38;0.60;;;11.70;99.90;;;;;;5036467;28;20033;-74
2022/06/05 09:55:44;;;;;;;2.75;0.50;;;11.70;99.90;;;;;;5032929;28;20037;-75
2022/06/05 09:59:02;;;;;;;1.85;0.70;;;11.60;99.90;;;;;;5028598;28;20116;-74
2022/06/05 10:01:34;;;;;;;;;;;11.50;99.90;;;;;;5018726;28;20047;-76
2022/06/05 10:04:06;;;;;;;1.08;0.55;;;11.50;99.90;;;;;;5032229;28;19922;-82
2022/06/05 10:06:36;;;;;;;1.13;0.60;;;11.40;99.90;;;;;;5036536;28;20043;-76
2022/06/05 10:09:10;;;;;;;2.83;0.75;;;11.40;99.90;;;;;;5034137;28;20029;-75
2022/06/05 10:12:03;;;;;;;2.88;0.75;;;11.40;99.90;;;;;;5032994;28;20061;-76
2022/06/05 10:14:51;;;;;;;0.82;0.50;;;11.30;99.90;;;;;;5031815;28;20083;-74
2022/06/05 10:17:42;;;;;;;1.02;0.60;;;11.30;99.90;;;;;;5029707;28;20124;-77
2022/06/05 10:20:17;;;;;;;1.50;0.95;;;11.20;99.90;;;;;;5027712;28;20108;-76
2022/06/05 10:23:17;;;;;;;1.60;0.70;;;11.20;99.90;;;;;;5034023;28;20029;-77
2022/06/05 10:26:33;;;;;;;0.82;0.52;;;11.20;99.90;;;;;;5025013;28;20037;-75
2022/06/05 10:29:39;;;;;;;1.45;0.65;;;11.10;99.90;;;;;;5034525;28;20529;-77
2022/06/05 10:32:33;;;;;;;1.27;0.60;;;11.10;99.90;;;;;;5033835;28;20786;-75
2022/06/05 10:35:11;;;;;;;1.50;0.73;;;11.00;99.90;;;;;;5029913;28;20851;-78
2022/06/05 10:37:48;;;;;;;1.45;0.93;;;11.00;99.90;;;;;;5032044;28;20056;-77
2022/06/05 10:40:28;;;;;;;1.85;0.90;;;11.00;99.90;;;;;;5031138;28;20049;-77
2022/06/05 10:43:21;;;;;;;2.40;1.00;;;10.90;99.90;;;;;;5033129;28;20032;-76
2022/06/05 10:46:01;;;;;;;2.50;1.13;;;10.90;99.90;;;;;;5032352;28;20031;-76
2022/06/05 10:48:37;;;;;;;2.40;0.93;;;10.90;99.90;;;;;;5033804;28;20370;-77
2022/06/05 10:51:27;;;;;;;3.15;0.85;;;10.90;99.90;;;;;;5050846;28;20029;-77
2022/06/05 10:54:16;;;;;;;0.98;0.60;;;10.90;99.90;;;;;;5043959;28;20079;-76
2022/06/05 10:56:47;;;;;;;1.75;0.70;;;10.90;99.90;;;;;;5029225;28;20064;-75
2022/06/05 10:59:40;;;;;;;2.97;0.60;;;10.80;99.90;;;;;;5027811;28;20121;-76
2022/06/05 11:02:29;;;;;;;1.77;0.57;;;10.80;99.90;;;;;;5030478;28;20028;-76
2022/06/05 11:05:20;;;;;;;2.50;0.50;;;10.70;99.90;;;;;;5035858;28;20048;-76
2022/06/05 11:08:01;;;;;;;1.85;1.05;;;10.70;99.90;;;;;;5033627;28;20388;-75
2022/06/05 11:13:45;;;;;;;1.23;0.60;;;10.40;99.90;;;;;;5027928;28;20043;-76
2022/06/05 11:16:22;;;;;;;1.85;1.02;;;10.40;99.90;;;;;;5028875;28;20037;-73
2022/06/05 11:18:59;;;;;;;4.15;0.65;;;10.40;99.90;;;;;;5037411;28;20634;-74
2022/06/05 11:21:29;;;;;;;1.67;0.50;;;10.30;99.90;;;;;;5034828;28;20037;-75
2022/06/05 11:23:59;;;;;;;1.38;0.90;;;10.30;99.90;;;;;;5047384;28;20033;-75
2022/06/05 11:26:52;;;;;;;1.60;0.70;;;10.30;99.90;;;;;;5050386;28;20040;-76
2022/06/05 11:29:38;;;;;;;0.95;0.75;;;10.30;99.90;;;;;;5049443;28;20079;-75
2022/06/05 11:32:11;;;;;;;1.10;0.50;;;10.20;99.90;;;;;;5049535;28;20112;-77
2022/06/05 11:35:16;;;;;;;3.58;1.30;;;10.10;99.90;;;;;;5037355;28;20072;-73
2022/06/05 11:38:08;;;;;;;1.95;0.55;;;10.10;99.90;;;;;;5037661;28;20049;-74
2022/06/05 11:40:47;;;;;;;1.25;0.60;;;10.00;99.90;;;;;;5032402;28;20392;-76
2022/06/05 11:43:18;;;;;;;3.20;0.98;;;9.90;99.90;;;;;;5025396;28;20503;-76
2022/06/05 11:46:10;;;;;;;1.85;0.57;;;9.90;99.90;;;;;;5034850;28;20135;-77
2022/06/05 11:48:50;;;;;;;1.45;0.73;;;9.80;99.90;;;;;;5034115;28;20518;-80
2022/06/05 11:51:35;;;;;;;0.90;0.50;;;9.80;99.90;;;;;;5049238;28;20109;-79
2022/06/05 11:54:11;;;;;;;1.10;0.60;;;9.80;99.90;;;;;;5032222;28;20084;-78
2022/06/05 11:57:14;;;;;;;2.45;0.70;;;9.80;99.90;;;;;;5038206;28;20037;-74
2022/06/05 11:59:59;;;;;;;0.70;0.50;;;9.70;99.90;;;;;;5032716;28;20036;-79
2022/06/05 12:02:38;;;;;;;1.98;0.63;;;9.70;99.90;;;;;;5037030;28;20017;-78
2022/06/05 12:05:25;;;;;;;1.17;0.50;;;9.80;99.90;;;;;;5041795;28;20025;-80
2022/06/05 12:08:19;;;;;;;6.65;0.93;;;9.80;99.90;;;;;;5027558;28;20059;-78
2022/06/05 12:10:59;;;;;;;0.65;0.40;;;9.80;99.90;;;;;;5029439;28;20033;-80
2022/06/05 12:13:34;;;;;;;1.08;0.47;;;9.80;99.90;;;;;;5049025;28;20036;-77
2022/06/05 12:16:13;;;;;;;0.95;0.65;;;9.80;99.90;;;;;;5032306;28;20098;-75
2022/06/05 12:18:57;;;;;;;1.63;0.75;;;9.90;99.90;;;;;;5031829;28;20124;-77
2022/06/05 12:21:56;;;;;;;1.13;0.52;;;9.90;99.90;;;;;;5040445;28;20036;-77
2022/06/05 12:24:40;;;;;;;1.40;0.82;;;9.90;99.90;;;;;;5035926;28;20417;-76
2022/06/05 12:27:19;;;;;;;1.88;0.80;;;10.00;99.90;;;;;;5027211;28;20035;-77
2022/06/05 12:29:57;;;;;;;0.73;0.40;;;9.90;99.90;;;;;;5039655;28;20392;-78
2022/06/05 12:32:50;;;;;;;1.00;0.47;;;9.90;99.90;;;;;;5029476;28;20034;-76
2022/06/05 12:35:28;;;;;;;0.90;0.70;;;9.90;99.90;;;;;;5026176;28;20024;-77
2022/06/05 12:38:21;;;;;;;2.10;0.60;;;9.80;99.90;;;;;;5029350;28;20614;-81
2022/06/05 12:41:29;;;;;;;1.15;0.50;;;9.90;99.90;;;;;;5019026;28;20033;-77
2022/06/05 12:44:14;;;;;;;0.68;0.40;;;10.00;99.90;;;;;;5040674;28;22084;-75
2022/06/05 12:46:53;;;;;;;0.65;0.28;;;10.20;99.90;;;;;;5028495;28;20491;-76
2022/06/05 12:49:54;;;;;;;1.55;0.40;;;10.20;99.90;;;;;;5027472;28;20072;-75
2022/06/05 12:52:45;;;;;;;1.67;0.63;;;10.20;99.90;;;;;;5033048;28;20061;-77
2022/06/05 12:55:21;;;;;;;1.92;0.50;;;10.30;99.90;;;;;;5033663;28;20021;-78
2022/06/05 12:57:57;;;;;;;;;;;10.30;99.90;;;;;;5042639;28;20533;-77
2022/06/05 13:00:32;;;;;;;0.50;0.30;;;10.30;99.90;;;;;;5035103;28;19988;-77
2022/06/05 13:02:59;;;;;;;0.20;0.20;;;10.30;99.90;;;;;;5029930;28;20030;-75
2022/06/05 13:05:38;;;;;;;2.50;0.35;;;10.40;99.90;;;;;;5028954;28;20033;-76
2022/06/05 13:08:06;;;;;;;0.65;0.32;;;10.40;99.90;;;;;;5028799;28;20087;-76
2022/06/05 13:11:00;;;;;;;0.73;0.22;;;10.50;99.90;;;;;;5034426;28;20032;-78
2022/06/05 13:14:20;;;;;;;6.32;0.68;;;10.50;99.90;;;;;;5033132;28;20045;-75
2022/06/05 13:16:57;;;;;;;0.60;0.40;;;10.60;99.90;;;;;;5015582;28;20098;-76
2022/06/05 13:19:44;;;;;;;0.68;0.32;;;10.60;99.90;;;;;;5040571;28;20071;-76
2022/06/05 13:22:33;;;;;;;0.95;0.30;;;10.70;99.90;;;;;;5037835;28;20558;-76
2022/06/05 13:25:30;;;;;;;1.25;0.50;;;10.70;99.90;;;;;;5042333;28;20523;-75
2022/06/05 13:28:15;;;;;;;;;;;10.70;99.90;;;;;;5028056;28;20068;-75
2022/06/05 13:30:59;;;;;;;0.43;0.30;;;10.70;99.90;;;;;;5036914;28;19920;-77
2022/06/05 13:33:45;;;;;;;3.63;1.67;;;10.60;99.90;;;;;;5038523;28;20112;-78
2022/06/05 13:36:26;;;;;;;1.50;0.45;;;10.50;99.90;;;;;;5041454;28;20055;-78
2022/06/05 13:39:14;;;;;;;1.23;0.30;;;10.40;99.90;;;;;;5042975;28;20041;-78
2022/06/05 13:41:54;;;;;;;0.68;0.38;;;10.40;99.90;;;;;;5035309;28;20037;-75
2022/06/05 13:44:24;;;;;;;1.52;0.30;;;10.30;99.90;;;;;;5035096;28;20107;-75
2022/06/05 13:47:21;;;;;;;0.85;0.77;;;10.30;99.90;;;;;;5038948;28;20060;-77
2022/06/05 13:50:01;;;;;;;0.95;0.57;;;10.20;99.90;;;;;;5043804;28;20046;-77